| time (UTC) | temp F | wind direction | speed knots | gust knots | rain 1hr in | rain 24hr in | rain mn in | humidity % | barometer mb |
| 20260507040034 | 50 | 129 | 0.0 | 0.0 | 0.00 | 0.00 | 0.00 | 79 | 1018.9 |
| 20260507034535 | 51 | 129 | 0.0 | 0.0 | 0.00 | 0.00 | 0.00 | 80 | 1018.9 |
| 20260507033029 | 52 | 129 | 0.0 | 1.7 | 0.00 | 0.00 | 0.00 | 81 | 1018.8 |
| 20260507031527 | 53 | 108 | 0.0 | 0.0 | 0.00 | 0.00 | 0.00 | 76 | 1018.6 |
| 20260507030025 | 54 | 108 | 0.0 | 0.0 | 0.00 | 0.00 | 0.00 | 73 | 1018.4 |
| 20260507024623 | 56 | 108 | 0.0 | 0.0 | 0.00 | 0.00 | 0.00 | 73 | 1018.4 |
| 20260507023020 | 57 | 108 | 0.0 | 1.7 | 0.00 | 0.00 | 0.00 | 68 | 1018.4 |
| 20260507021518 | 59 | 128 | 0.0 | 6.1 | 0.00 | 0.00 | 0.00 | 68 | 1018.4 |
| 20260507020038 | 60 | 89 | 0.0 | 4.3 | 0.00 | 0.00 | 0.00 | 65 | 1018.4 |
| 20260507014514 | 61 | 84 | 2.6 | 7.0 | 0.00 | 0.00 | 0.00 | 62 | 1018.4 |
| 20260507013017 | 63 | 100 | 1.7 | 7.8 | 0.00 | 0.00 | 0.00 | 59 | 1018.4 |
| 20260507011513 | 68 | 58 | 2.6 | 8.7 | 0.00 | 0.00 | 0.00 | 39 | 1018.4 |
| 20260507010008 | 69 | 280 | 0.9 | 3.5 | 0.00 | 0.00 | 0.00 | 32 | 1018.4 |
| 20260507004506 | 70 | 126 | 1.7 | 6.1 | 0.00 | 0.00 | 0.00 | 31 | 1018.3 |
| 20260507003005 | 70 | 294 | 2.6 | 8.7 | 0.00 | 0.00 | 0.00 | 30 | 1018.4 |
| 20260507001505 | 71 | 264 | 0.9 | 4.3 | 0.00 | 0.00 | 0.00 | 31 | 1018.6 |
| 20260506234557 | 71 | 103 | 0.9 | 7.0 | 0.00 | 0.00 | 0.00 | 35 | 1018.3 |
| 20260506233054 | 71 | 283 | 1.7 | 7.8 | 0.00 | 0.00 | 0.00 | 34 | 1018.4 |
| 20260506231559 | 71 | 273 | 1.7 | 5.2 | 0.00 | 0.00 | 0.00 | 34 | 1018.6 |
| 20260506230054 | 71 | 111 | 0.9 | 6.1 | 0.00 | 0.00 | 0.00 | 39 | 1018.9 |
| 20260506224543 | 70 | 96 | 0.9 | 7.8 | 0.00 | 0.00 | 0.00 | 38 | 1019.0 |
| 20260506223039 | 70 | 231 | 2.6 | 6.1 | 0.00 | 0.00 | 0.00 | 37 | 1019.1 |
| 20260506221539 | 70 | 264 | 3.5 | 7.0 | 0.00 | 0.00 | 0.00 | 37 | 1019.2 |
| 20260506220036 | 70 | 241 | 0.9 | 5.2 | 0.00 | 0.00 | 0.00 | 41 | 1019.6 |
| 20260506214530 | 69 | 279 | 1.7 | 8.7 | 0.00 | 0.00 | 0.00 | 40 | 1019.7 |
| 20260506213028 | 70 | 260 | 3.5 | 7.0 | 0.00 | 0.00 | 0.00 | 36 | 1019.9 |
| 20260506211524 | 68 | 71 | 1.7 | 7.0 | 0.00 | 0.00 | 0.00 | 42 | 1020.2 |
| 20260506210044 | 69 | 349 | 0.9 | 4.3 | 0.00 | 0.00 | 0.00 | 42 | 1020.4 |
| 20260506204519 | 68 | 274 | 0.9 | 7.0 | 0.00 | 0.00 | 0.00 | 43 | 1020.6 |
| 20260506203016 | 68 | 193 | 1.7 | 7.8 | 0.00 | 0.00 | 0.00 | 43 | 1020.8 |
| 20260506201519 | 67 | 285 | 2.6 | 7.8 | 0.00 | 0.00 | 0.00 | 42 | 1020.9 |
| 20260506200011 | 66 | 130 | 1.7 | 11.3 | 0.00 | 0.00 | 0.00 | 42 | 1021.2 |
| 20260506194507 | 66 | 39 | 0.9 | 7.0 | 0.00 | 0.00 | 0.00 | 44 | 1021.3 |
| 20260506193002 | 65 | 335 | 0.9 | 8.7 | 0.00 | 0.00 | 0.00 | 42 | 1021.2 |
| 20260506191559 | 64 | 104 | 0.9 | 5.2 | 0.00 | 0.00 | 0.00 | 49 | 1021.5 |
| 20260506190056 | 62 | 36 | 1.7 | 7.8 | 0.00 | 0.00 | 0.00 | 49 | 1021.6 |
| 20260506184554 | 63 | 114 | 1.7 | 7.8 | 0.00 | 0.00 | 0.00 | 49 | 1021.7 |
| 20260506183058 | 61 | 88 | 3.5 | 10.4 | 0.00 | 0.00 | 0.00 | 48 | 1021.8 |
| 20260506181553 | 61 | 78 | 1.7 | 6.1 | 0.00 | 0.00 | 0.00 | 48 | 1021.8 |
| 20260506180045 | 59 | 100 | 3.5 | 11.3 | 0.00 | 0.00 | 0.00 | 49 | 1021.8 |
| 20260506174540 | 59 | 90 | 2.6 | 5.2 | 0.00 | 0.01 | 0.00 | 52 | 1021.7 |
| 20260506173043 | 58 | 51 | 0.9 | 9.6 | 0.00 | 0.01 | 0.00 | 52 | 1021.7 |
| 20260506171535 | 57 | 112 | 0.9 | 4.3 | 0.00 | 0.01 | 0.00 | 57 | 1021.6 |
| 20260506170031 | 56 | 53 | 0.9 | 5.2 | 0.00 | 0.01 | 0.00 | 57 | 1021.6 |
| 20260506164543 | 56 | 107 | 0.9 | 3.5 | 0.00 | 0.02 | 0.00 | 57 | 1021.6 |
| 20260506163025 | 56 | 69 | 0.9 | 4.3 | 0.00 | 0.02 | 0.00 | 59 | 1021.5 |
| 20260506161523 | 56 | 110 | 0.9 | 5.2 | 0.00 | 0.02 | 0.00 | 58 | 1021.5 |
| 20260506160020 | 57 | 21 | 0.0 | 0.9 | 0.00 | 0.02 | 0.00 | 53 | 1021.3 |
| 20260506154516 | 55 | 131 | 0.0 | 1.7 | 0.00 | 0.03 | 0.00 | 56 | 1021.4 |
| 20260506153012 | 54 | 239 | 0.0 | 0.0 | 0.00 | 0.03 | 0.00 | 63 | 1021.4 |
| 20260506151507 | 52 | 243 | 0.0 | 0.9 | 0.00 | 0.03 | 0.00 | 70 | 1021.5 |
| 20260506150002 | 49 | 260 | 0.0 | 0.0 | 0.00 | 0.05 | 0.00 | 76 | 1021.6 |
| 20260506144555 | 45 | 265 | 0.0 | 0.0 | 0.00 | 0.05 | 0.00 | 87 | 1021.6 |
| 20260506143050 | 42 | 265 | 0.0 | 0.0 | 0.00 | 0.05 | 0.00 | 87 | 1021.5 |
| 20260506141546 | 41 | 265 | 0.0 | 1.7 | 0.00 | 0.05 | 0.00 | 88 | 1021.3 |
| 20260506140039 | 38 | 274 | 0.0 | 0.9 | 0.00 | 0.05 | 0.00 | 93 | 1021.3 |
| 20260506134536 | 37 | 274 | 0.0 | 0.0 | 0.00 | 0.10 | 0.00 | 93 | 1021.1 |
| 20260506133038 | 37 | 274 | 0.0 | 0.9 | 0.00 | 0.10 | 0.00 | 93 | 1020.9 |
| 20260506131531 | 37 | 274 | 0.0 | 0.9 | 0.00 | 0.10 | 0.00 | 92 | 1020.8 |
| 20260506130028 | 36 | 276 | 0.0 | 0.0 | 0.00 | 0.10 | 0.00 | 93 | 1020.6 |
| 20260506124525 | 36 | 274 | 0.0 | 0.0 | 0.00 | 0.13 | 0.00 | 93 | 1020.6 |
| 20260506123022 | 36 | 269 | 0.0 | 0.0 | 0.00 | 0.13 | 0.00 | 94 | 1020.4 |
| 20260506121522 | 36 | 269 | 0.0 | 1.7 | 0.00 | 0.13 | 0.00 | 94 | 1020.4 |
| 20260506120034 | 36 | 275 | 0.9 | 0.9 | 0.00 | 0.13 | 0.00 | 95 | 1020.4 |
| 20260506114519 | 36 | 274 | 0.9 | 1.7 | 0.00 | 0.14 | 0.00 | 96 | 1020.1 |
| 20260506113012 | 36 | 270 | 0.0 | 0.0 | 0.00 | 0.14 | 0.00 | 97 | 1020.0 |
| 20260506111510 | 36 | 263 | 0.0 | 0.0 | 0.00 | 0.14 | 0.00 | 97 | 1020.1 |
| 20260506110009 | 36 | 262 | 0.0 | 0.0 | 0.00 | 0.14 | 0.00 | 97 | 1020.0 |
| 20260506104504 | 37 | 262 | 0.0 | 0.0 | 0.00 | 0.14 | 0.00 | 97 | 1020.0 |
| 20260506103008 | 37 | 262 | 0.0 | 0.0 | 0.00 | 0.14 | 0.00 | 96 | 1019.9 |
| 20260506101600 | 37 | 262 | 0.0 | 0.0 | 0.00 | 0.14 | 0.00 | 96 | 1019.6 |
| 20260506100111 | 37 | 262 | 0.0 | 0.0 | 0.00 | 0.14 | 0.00 | 96 | 1019.7 |
| 20260506094601 | 37 | 252 | 0.0 | 0.0 | 0.00 | 0.14 | 0.00 | 96 | 1019.6 |
| 20260506093052 | 37 | 231 | 0.0 | 0.9 | 0.00 | 0.14 | 0.00 | 96 | 1019.5 |
| 20260506091550 | 36 | 134 | 0.0 | 0.0 | 0.00 | 0.14 | 0.00 | 96 | 1019.5 |
| 20260506090045 | 37 | 134 | 0.0 | 0.0 | 0.00 | 0.14 | 0.00 | 95 | 1019.4 |
| 20260506084612 | 38 | 134 | 0.0 | 0.9 | 0.00 | 0.15 | 0.00 | 94 | 1019.8 |
| 20260506083039 | 38 | 117 | 0.0 | 0.9 | 0.00 | 0.15 | 0.00 | 94 | 1019.8 |
| 20260506081547 | 38 | 145 | 0.9 | 1.7 | 0.00 | 0.15 | 0.00 | 95 | 1019.9 |
| 20260506073026 | 38 | 82 | 0.0 | 0.0 | 0.00 | 0.19 | 0.00 | 95 | 1020.1 |
| 20260506071521 | 38 | 95 | 0.0 | 0.9 | 0.00 | 0.19 | 0.00 | 95 | 1020.1 |
| 20260506061509 | 38 | 148 | 0.0 | 1.7 | 0.00 | 0.21 | 0.19 | 96 | 1019.6 |
| 20260506044552 | 39 | 126 | 0.0 | 0.9 | 0.00 | 0.21 | 0.19 | 95 | 1018.7 |
| 20260506043049 | 39 | 133 | 0.0 | 0.9 | 0.00 | 0.21 | 0.19 | 95 | 1018.4 |
| 20260506041558 | 39 | 115 | 0.0 | 1.7 | 0.00 | 0.21 | 0.19 | 95 | 1018.1 |